sensor_id;sensor_type;location;lat;lon;timestamp;P1;durP1;ratioP1;P2;durP2;ratioP2
46765;SDS011;32527;51.986;5.842;2023-07-22T00:02:05;9.35;;;3.38;;
46765;SDS011;32527;51.986;5.842;2023-07-22T00:04:31;6.78;;;4.10;;
46765;SDS011;32527;51.986;5.842;2023-07-22T00:06:58;9.02;;;5.10;;
46765;SDS011;32527;51.986;5.842;2023-07-22T00:09:24;8.02;;;4.50;;
46765;SDS011;32527;51.986;5.842;2023-07-22T00:11:50;8.32;;;5.18;;
46765;SDS011;32527;51.986;5.842;2023-07-22T00:14:16;5.43;;;3.72;;
46765;SDS011;32527;51.986;5.842;2023-07-22T00:16:42;6.57;;;4.25;;
46765;SDS011;32527;51.986;5.842;2023-07-22T00:19:08;6.03;;;4.13;;
46765;SDS011;32527;51.986;5.842;2023-07-22T00:21:34;6.38;;;3.78;;
46765;SDS011;32527;51.986;5.842;2023-07-22T00:24:00;11.93;;;5.20;;
46765;SDS011;32527;51.986;5.842;2023-07-22T00:26:26;9.50;;;4.93;;
46765;SDS011;32527;51.986;5.842;2023-07-22T00:28:52;9.98;;;4.75;;
46765;SDS011;32527;51.986;5.842;2023-07-22T00:31:18;5.70;;;4.20;;
46765;SDS011;32527;51.986;5.842;2023-07-22T00:33:44;7.32;;;4.20;;
46765;SDS011;32527;51.986;5.842;2023-07-22T00:36:10;13.45;;;4.32;;
46765;SDS011;32527;51.986;5.842;2023-07-22T00:38:36;7.22;;;4.22;;
46765;SDS011;32527;51.986;5.842;2023-07-22T00:41:02;6.40;;;4.35;;
46765;SDS011;32527;51.986;5.842;2023-07-22T00:43:32;8.18;;;4.82;;
46765;SDS011;32527;51.986;5.842;2023-07-22T00:45:58;9.10;;;5.50;;
46765;SDS011;32527;51.986;5.842;2023-07-22T00:48:25;10.02;;;5.20;;
46765;SDS011;32527;51.986;5.842;2023-07-22T00:50:51;8.60;;;5.55;;
46765;SDS011;32527;51.986;5.842;2023-07-22T00:53:17;10.30;;;5.30;;
46765;SDS011;32527;51.986;5.842;2023-07-22T00:55:43;10.98;;;5.47;;
46765;SDS011;32527;51.986;5.842;2023-07-22T00:58:10;8.25;;;5.40;;
46765;SDS011;32527;51.986;5.842;2023-07-22T01:00:36;10.48;;;6.00;;
46765;SDS011;32527;51.986;5.842;2023-07-22T01:03:02;9.75;;;5.25;;
46765;SDS011;32527;51.986;5.842;2023-07-22T01:05:29;12.80;;;5.75;;
46765;SDS011;32527;51.986;5.842;2023-07-22T01:07:56;9.85;;;5.05;;
46765;SDS011;32527;51.986;5.842;2023-07-22T01:10:22;9.50;;;5.93;;
46765;SDS011;32527;51.986;5.842;2023-07-22T01:12:48;10.45;;;6.03;;
46765;SDS011;32527;51.986;5.842;2023-07-22T01:15:14;10.45;;;6.03;;
46765;SDS011;32527;51.986;5.842;2023-07-22T01:17:40;9.95;;;6.00;;
46765;SDS011;32527;51.986;5.842;2023-07-22T01:20:06;8.82;;;6.13;;
46765;SDS011;32527;51.986;5.842;2023-07-22T01:22:34;11.75;;;5.68;;
46765;SDS011;32527;51.986;5.842;2023-07-22T01:25:01;8.35;;;5.38;;
46765;SDS011;32527;51.986;5.842;2023-07-22T01:27:28;9.13;;;5.10;;
46765;SDS011;32527;51.986;5.842;2023-07-22T01:29:54;13.25;;;6.43;;
46765;SDS011;32527;51.986;5.842;2023-07-22T01:32:21;9.20;;;4.97;;
46765;SDS011;32527;51.986;5.842;2023-07-22T01:34:47;11.30;;;5.47;;
46765;SDS011;32527;51.986;5.842;2023-07-22T01:37:13;10.32;;;5.38;;
46765;SDS011;32527;51.986;5.842;2023-07-22T01:39:39;10.23;;;5.38;;
46765;SDS011;32527;51.986;5.842;2023-07-22T01:42:05;8.40;;;4.85;;
46765;SDS011;32527;51.986;5.842;2023-07-22T01:44:31;8.13;;;5.30;;
46765;SDS011;32527;51.986;5.842;2023-07-22T01:46:57;7.60;;;4.97;;
46765;SDS011;32527;51.986;5.842;2023-07-22T01:49:23;10.25;;;5.00;;
46765;SDS011;32527;51.986;5.842;2023-07-22T01:51:50;7.65;;;5.00;;
46765;SDS011;32527;51.986;5.842;2023-07-22T01:54:17;9.18;;;5.30;;
46765;SDS011;32527;51.986;5.842;2023-07-22T01:56:43;9.45;;;5.35;;
46765;SDS011;32527;51.986;5.842;2023-07-22T01:59:10;9.48;;;5.72;;
46765;SDS011;32527;51.986;5.842;2023-07-22T02:01:36;8.15;;;6.35;;
46765;SDS011;32527;51.986;5.842;2023-07-22T02:04:02;10.85;;;5.35;;
46765;SDS011;32527;51.986;5.842;2023-07-22T02:06:28;12.68;;;5.90;;
46765;SDS011;32527;51.986;5.842;2023-07-22T02:08:54;10.32;;;5.22;;
46765;SDS011;32527;51.986;5.842;2023-07-22T02:11:21;7.95;;;5.35;;
46765;SDS011;32527;51.986;5.842;2023-07-22T02:13:47;8.75;;;5.85;;
46765;SDS011;32527;51.986;5.842;2023-07-22T02:16:13;12.02;;;7.07;;
46765;SDS011;32527;51.986;5.842;2023-07-22T02:18:39;8.95;;;5.57;;
46765;SDS011;32527;51.986;5.842;2023-07-22T02:21:06;10.25;;;6.43;;
46765;SDS011;32527;51.986;5.842;2023-07-22T02:23:32;13.05;;;6.30;;
46765;SDS011;32527;51.986;5.842;2023-07-22T02:25:58;9.05;;;5.38;;
46765;SDS011;32527;51.986;5.842;2023-07-22T02:28:24;13.30;;;6.72;;
46765;SDS011;32527;51.986;5.842;2023-07-22T02:30:51;17.10;;;5.88;;
46765;SDS011;32527;51.986;5.842;2023-07-22T02:33:18;13.85;;;6.43;;
46765;SDS011;32527;51.986;5.842;2023-07-22T02:35:44;11.80;;;6.40;;
46765;SDS011;32527;51.986;5.842;2023-07-22T02:38:11;12.00;;;6.93;;
46765;SDS011;32527;51.986;5.842;2023-07-22T02:40:39;15.02;;;7.25;;
46765;SDS011;32527;51.986;5.842;2023-07-22T02:43:05;10.77;;;6.22;;
46765;SDS011;32527;51.986;5.842;2023-07-22T02:45:36;14.07;;;7.10;;
46765;SDS011;32527;51.986;5.842;2023-07-22T02:48:03;12.60;;;5.95;;
46765;SDS011;32527;51.986;5.842;2023-07-22T02:50:29;15.27;;;7.22;;
46765;SDS011;32527;51.986;5.842;2023-07-22T02:52:56;13.63;;;7.78;;
46765;SDS011;32527;51.986;5.842;2023-07-22T02:55:22;12.90;;;7.70;;
46765;SDS011;32527;51.986;5.842;2023-07-22T02:57:48;12.25;;;7.22;;
46765;SDS011;32527;51.986;5.842;2023-07-22T03:00:15;11.85;;;6.25;;
46765;SDS011;32527;51.986;5.842;2023-07-22T03:05:14;13.48;;;6.72;;
46765;SDS011;32527;51.986;5.842;2023-07-22T03:07:41;14.95;;;6.95;;
46765;SDS011;32527;51.986;5.842;2023-07-22T03:10:08;13.63;;;7.28;;
46765;SDS011;32527;51.986;5.842;2023-07-22T03:12:34;10.27;;;6.65;;
46765;SDS011;32527;51.986;5.842;2023-07-22T03:15:01;11.80;;;6.68;;
46765;SDS011;32527;51.986;5.842;2023-07-22T03:17:28;11.18;;;5.93;;
46765;SDS011;32527;51.986;5.842;2023-07-22T03:19:55;14.05;;;7.85;;
46765;SDS011;32527;51.986;5.842;2023-07-22T03:22:21;12.55;;;7.15;;
46765;SDS011;32527;51.986;5.842;2023-07-22T03:24:47;14.00;;;7.72;;
46765;SDS011;32527;51.986;5.842;2023-07-22T03:27:14;12.85;;;8.15;;
46765;SDS011;32527;51.986;5.842;2023-07-22T03:29:42;13.75;;;6.97;;
46765;SDS011;32527;51.986;5.842;2023-07-22T03:32:08;17.52;;;8.43;;
46765;SDS011;32527;51.986;5.842;2023-07-22T03:34:34;14.85;;;7.38;;
46765;SDS011;32527;51.986;5.842;2023-07-22T03:37:00;13.52;;;9.60;;
46765;SDS011;32527;51.986;5.842;2023-07-22T03:39:26;18.63;;;9.85;;
46765;SDS011;32527;51.986;5.842;2023-07-22T03:41:53;12.80;;;8.25;;
46765;SDS011;32527;51.986;5.842;2023-07-22T03:44:19;14.07;;;7.47;;
46765;SDS011;32527;51.986;5.842;2023-07-22T03:46:45;16.80;;;8.07;;
46765;SDS011;32527;51.986;5.842;2023-07-22T03:49:11;15.55;;;8.07;;
46765;SDS011;32527;51.986;5.842;2023-07-22T03:51:37;18.23;;;9.05;;
46765;SDS011;32527;51.986;5.842;2023-07-22T03:54:03;13.77;;;7.00;;
46765;SDS011;32527;51.986;5.842;2023-07-22T03:56:29;17.42;;;8.13;;
46765;SDS011;32527;51.986;5.842;2023-07-22T03:58:55;11.80;;;6.70;;
46765;SDS011;32527;51.986;5.842;2023-07-22T04:01:21;16.55;;;8.07;;
46765;SDS011;32527;51.986;5.842;2023-07-22T04:03:47;13.63;;;7.80;;
46765;SDS011;32527;51.986;5.842;2023-07-22T04:06:13;12.82;;;7.95;;
46765;SDS011;32527;51.986;5.842;2023-07-22T04:08:39;15.23;;;7.45;;
46765;SDS011;32527;51.986;5.842;2023-07-22T04:11:05;13.05;;;7.97;;
46765;SDS011;32527;51.986;5.842;2023-07-22T04:13:31;11.55;;;7.00;;
46765;SDS011;32527;51.986;5.842;2023-07-22T04:15:57;18.50;;;8.05;;
46765;SDS011;32527;51.986;5.842;2023-07-22T04:18:23;15.60;;;8.00;;
46765;SDS011;32527;51.986;5.842;2023-07-22T04:20:54;20.85;;;9.23;;
46765;SDS011;32527;51.986;5.842;2023-07-22T04:23:21;13.70;;;6.85;;
46765;SDS011;32527;51.986;5.842;2023-07-22T04:25:47;14.25;;;7.13;;
46765;SDS011;32527;51.986;5.842;2023-07-22T04:28:13;14.82;;;7.35;;
46765;SDS011;32527;51.986;5.842;2023-07-22T04:30:40;14.95;;;7.35;;
46765;SDS011;32527;51.986;5.842;2023-07-22T04:33:07;17.33;;;8.73;;
46765;SDS011;32527;51.986;5.842;2023-07-22T04:35:38;13.68;;;7.70;;
46765;SDS011;32527;51.986;5.842;2023-07-22T04:38:06;18.80;;;8.50;;
46765;SDS011;32527;51.986;5.842;2023-07-22T04:40:32;20.05;;;7.82;;
46765;SDS011;32527;51.986;5.842;2023-07-22T04:42:58;14.25;;;8.00;;
46765;SDS011;32527;51.986;5.842;2023-07-22T04:45:24;14.20;;;7.35;;
46765;SDS011;32527;51.986;5.842;2023-07-22T04:47:50;14.73;;;7.85;;
46765;SDS011;32527;51.986;5.842;2023-07-22T04:50:16;14.60;;;7.22;;
46765;SDS011;32527;51.986;5.842;2023-07-22T04:52:44;13.48;;;7.32;;
46765;SDS011;32527;51.986;5.842;2023-07-22T04:55:11;17.83;;;8.98;;
46765;SDS011;32527;51.986;5.842;2023-07-22T04:57:37;15.32;;;7.32;;
46765;SDS011;32527;51.986;5.842;2023-07-22T05:00:04;12.40;;;6.97;;
46765;SDS011;32527;51.986;5.842;2023-07-22T05:02:30;14.68;;;7.47;;
46765;SDS011;32527;51.986;5.842;2023-07-22T05:04:57;17.77;;;8.43;;
46765;SDS011;32527;51.986;5.842;2023-07-22T05:07:23;17.98;;;8.18;;
46765;SDS011;32527;51.986;5.842;2023-07-22T05:09:49;14.13;;;7.82;;
46765;SDS011;32527;51.986;5.842;2023-07-22T05:12:18;14.75;;;8.07;;
46765;SDS011;32527;51.986;5.842;2023-07-22T05:14:45;16.55;;;8.20;;
46765;SDS011;32527;51.986;5.842;2023-07-22T05:17:11;14.40;;;8.20;;
46765;SDS011;32527;51.986;5.842;2023-07-22T05:19:37;19.42;;;8.00;;
46765;SDS011;32527;51.986;5.842;2023-07-22T05:22:03;11.85;;;6.90;;
46765;SDS011;32527;51.986;5.842;2023-07-22T05:24:29;12.63;;;8.07;;
46765;SDS011;32527;51.986;5.842;2023-07-22T05:26:55;18.13;;;8.48;;
46765;SDS011;32527;51.986;5.842;2023-07-22T05:29:21;17.38;;;7.82;;
46765;SDS011;32527;51.986;5.842;2023-07-22T05:31:47;17.40;;;8.57;;
46765;SDS011;32527;51.986;5.842;2023-07-22T05:34:13;14.85;;;8.65;;
46765;SDS011;32527;51.986;5.842;2023-07-22T05:36:39;17.42;;;9.35;;
46765;SDS011;32527;51.986;5.842;2023-07-22T05:39:06;13.23;;;8.18;;
46765;SDS011;32527;51.986;5.842;2023-07-22T05:41:35;13.48;;;8.35;;
46765;SDS011;32527;51.986;5.842;2023-07-22T05:44:01;13.77;;;7.38;;
46765;SDS011;32527;51.986;5.842;2023-07-22T05:46:27;17.30;;;8.88;;
46765;SDS011;32527;51.986;5.842;2023-07-22T05:48:53;15.73;;;8.07;;
46765;SDS011;32527;51.986;5.842;2023-07-22T05:51:19;14.63;;;7.70;;
46765;SDS011;32527;51.986;5.842;2023-07-22T05:53:45;12.38;;;8.10;;
46765;SDS011;32527;51.986;5.842;2023-07-22T05:56:11;12.18;;;7.30;;
46765;SDS011;32527;51.986;5.842;2023-07-22T05:58:37;10.40;;;7.63;;
46765;SDS011;32527;51.986;5.842;2023-07-22T06:01:04;12.02;;;7.45;;
46765;SDS011;32527;51.986;5.842;2023-07-22T06:03:30;11.80;;;7.15;;
46765;SDS011;32527;51.986;5.842;2023-07-22T06:05:56;10.40;;;6.85;;
46765;SDS011;32527;51.986;5.842;2023-07-22T06:08:22;10.43;;;6.88;;
46765;SDS011;32527;51.986;5.842;2023-07-22T06:10:49;12.85;;;7.72;;
46765;SDS011;32527;51.986;5.842;2023-07-22T06:13:15;13.07;;;7.88;;
46765;SDS011;32527;51.986;5.842;2023-07-22T06:15:41;12.77;;;6.70;;
46765;SDS011;32527;51.986;5.842;2023-07-22T06:18:07;15.98;;;7.72;;
46765;SDS011;32527;51.986;5.842;2023-07-22T06:20:34;12.30;;;8.57;;
46765;SDS011;32527;51.986;5.842;2023-07-22T06:23:01;12.30;;;6.90;;
46765;SDS011;32527;51.986;5.842;2023-07-22T06:25:27;12.45;;;7.00;;
46765;SDS011;32527;51.986;5.842;2023-07-22T06:27:53;11.23;;;6.72;;
46765;SDS011;32527;51.986;5.842;2023-07-22T06:30:19;12.82;;;7.32;;
46765;SDS011;32527;51.986;5.842;2023-07-22T06:32:45;10.00;;;6.32;;
46765;SDS011;32527;51.986;5.842;2023-07-22T06:35:11;11.80;;;6.70;;
46765;SDS011;32527;51.986;5.842;2023-07-22T06:37:37;11.10;;;6.95;;
46765;SDS011;32527;51.986;5.842;2023-07-22T06:40:04;15.02;;;7.35;;
46765;SDS011;32527;51.986;5.842;2023-07-22T06:42:30;13.20;;;7.60;;
46765;SDS011;32527;51.986;5.842;2023-07-22T06:44:56;10.80;;;7.90;;
46765;SDS011;32527;51.986;5.842;2023-07-22T06:47:22;13.18;;;7.47;;
46765;SDS011;32527;51.986;5.842;2023-07-22T06:49:48;15.30;;;7.55;;
46765;SDS011;32527;51.986;5.842;2023-07-22T06:52:15;9.95;;;5.97;;
46765;SDS011;32527;51.986;5.842;2023-07-22T06:54:42;10.50;;;8.35;;
46765;SDS011;32527;51.986;5.842;2023-07-22T06:57:08;9.93;;;7.22;;
46765;SDS011;32527;51.986;5.842;2023-07-22T06:59:34;14.00;;;7.10;;
46765;SDS011;32527;51.986;5.842;2023-07-22T07:02:00;9.70;;;6.72;;
46765;SDS011;32527;51.986;5.842;2023-07-22T07:04:26;11.13;;;6.85;;
46765;SDS011;32527;51.986;5.842;2023-07-22T07:06:52;10.40;;;6.57;;
46765;SDS011;32527;51.986;5.842;2023-07-22T07:09:18;9.77;;;6.57;;
46765;SDS011;32527;51.986;5.842;2023-07-22T07:11:44;15.13;;;7.15;;
46765;SDS011;32527;51.986;5.842;2023-07-22T07:14:10;15.93;;;6.82;;
46765;SDS011;32527;51.986;5.842;2023-07-22T07:16:36;10.57;;;6.60;;
46765;SDS011;32527;51.986;5.842;2023-07-22T07:19:02;8.98;;;5.97;;
46765;SDS011;32527;51.986;5.842;2023-07-22T07:21:28;12.63;;;7.20;;
46765;SDS011;32527;51.986;5.842;2023-07-22T07:23:54;11.90;;;6.63;;
46765;SDS011;32527;51.986;5.842;2023-07-22T07:26:21;11.63;;;8.30;;
46765;SDS011;32527;51.986;5.842;2023-07-22T07:28:48;11.52;;;6.78;;
46765;SDS011;32527;51.986;5.842;2023-07-22T07:31:16;11.15;;;7.05;;
46765;SDS011;32527;51.986;5.842;2023-07-22T07:33:42;10.23;;;6.95;;
46765;SDS011;32527;51.986;5.842;2023-07-22T07:36:08;9.70;;;6.10;;
46765;SDS011;32527;51.986;5.842;2023-07-22T07:38:34;13.25;;;6.68;;
46765;SDS011;32527;51.986;5.842;2023-07-22T07:41:01;9.10;;;6.50;;
46765;SDS011;32527;51.986;5.842;2023-07-22T07:43:27;11.50;;;7.25;;
46765;SDS011;32527;51.986;5.842;2023-07-22T07:46:12;11.25;;;6.93;;
46765;SDS011;32527;51.986;5.842;2023-07-22T07:48:38;8.57;;;6.05;;
46765;SDS011;32527;51.986;5.842;2023-07-22T07:51:04;10.85;;;6.05;;
46765;SDS011;32527;51.986;5.842;2023-07-22T07:53:31;9.57;;;6.35;;
46765;SDS011;32527;51.986;5.842;2023-07-22T07:55:57;8.35;;;6.20;;
46765;SDS011;32527;51.986;5.842;2023-07-22T07:58:23;10.02;;;6.45;;
46765;SDS011;32527;51.986;5.842;2023-07-22T08:00:49;7.55;;;5.85;;
46765;SDS011;32527;51.986;5.842;2023-07-22T08:03:15;8.02;;;6.32;;
46765;SDS011;32527;51.986;5.842;2023-07-22T08:05:41;9.13;;;5.88;;
46765;SDS011;32527;51.986;5.842;2023-07-22T08:08:07;8.73;;;5.55;;
46765;SDS011;32527;51.986;5.842;2023-07-22T08:10:33;8.23;;;5.68;;
46765;SDS011;32527;51.986;5.842;2023-07-22T08:12:59;6.95;;;5.38;;
46765;SDS011;32527;51.986;5.842;2023-07-22T08:15:25;12.20;;;6.55;;
46765;SDS011;32527;51.986;5.842;2023-07-22T08:17:52;7.38;;;5.35;;
46765;SDS011;32527;51.986;5.842;2023-07-22T08:20:18;8.65;;;5.72;;
46765;SDS011;32527;51.986;5.842;2023-07-22T08:22:44;8.60;;;6.28;;
46765;SDS011;32527;51.986;5.842;2023-07-22T08:25:10;10.65;;;7.10;;
46765;SDS011;32527;51.986;5.842;2023-07-22T08:27:37;7.32;;;5.57;;
46765;SDS011;32527;51.986;5.842;2023-07-22T08:30:03;8.77;;;5.57;;
46765;SDS011;32527;51.986;5.842;2023-07-22T08:32:29;8.27;;;6.07;;
46765;SDS011;32527;51.986;5.842;2023-07-22T08:34:55;9.85;;;6.07;;
46765;SDS011;32527;51.986;5.842;2023-07-22T08:37:21;11.70;;;6.55;;
46765;SDS011;32527;51.986;5.842;2023-07-22T08:39:48;6.63;;;5.05;;
46765;SDS011;32527;51.986;5.842;2023-07-22T08:42:14;7.78;;;5.68;;
46765;SDS011;32527;51.986;5.842;2023-07-22T08:44:42;7.47;;;5.28;;
46765;SDS011;32527;51.986;5.842;2023-07-22T08:47:10;7.85;;;5.63;;
46765;SDS011;32527;51.986;5.842;2023-07-22T08:49:42;9.38;;;6.38;;
46765;SDS011;32527;51.986;5.842;2023-07-22T08:52:12;10.05;;;5.90;;
46765;SDS011;32527;51.986;5.842;2023-07-22T08:54:40;5.80;;;4.50;;
46765;SDS011;32527;51.986;5.842;2023-07-22T08:57:07;8.82;;;5.68;;
46765;SDS011;32527;51.986;5.842;2023-07-22T08:59:34;8.98;;;5.72;;
46765;SDS011;32527;51.986;5.842;2023-07-22T09:02:00;6.28;;;4.97;;
46765;SDS011;32527;51.986;5.842;2023-07-22T09:04:27;9.48;;;6.30;;
46765;SDS011;32527;51.986;5.842;2023-07-22T09:06:53;11.95;;;5.47;;
46765;SDS011;32527;51.986;5.842;2023-07-22T09:09:20;8.65;;;5.25;;
46765;SDS011;32527;51.986;5.842;2023-07-22T09:11:47;8.85;;;5.72;;
46765;SDS011;32527;51.986;5.842;2023-07-22T09:14:14;7.28;;;5.65;;
46765;SDS011;32527;51.986;5.842;2023-07-22T09:16:41;5.65;;;4.70;;
46765;SDS011;32527;51.986;5.842;2023-07-22T09:19:07;7.60;;;5.10;;
46765;SDS011;32527;51.986;5.842;2023-07-22T09:21:33;6.15;;;4.53;;
46765;SDS011;32527;51.986;5.842;2023-07-22T09:24:01;5.93;;;4.88;;
46765;SDS011;32527;51.986;5.842;2023-07-22T09:26:27;7.32;;;4.72;;
46765;SDS011;32527;51.986;5.842;2023-07-22T09:28:58;6.10;;;5.15;;
46765;SDS011;32527;51.986;5.842;2023-07-22T09:31:25;7.60;;;4.82;;
46765;SDS011;32527;51.986;5.842;2023-07-22T09:33:51;7.55;;;4.82;;
46765;SDS011;32527;51.986;5.842;2023-07-22T09:36:20;10.05;;;4.90;;
46765;SDS011;32527;51.986;5.842;2023-07-22T09:39:02;6.78;;;4.97;;
46765;SDS011;32527;51.986;5.842;2023-07-22T09:41:28;5.75;;;4.20;;
46765;SDS011;32527;51.986;5.842;2023-07-22T09:43:55;4.47;;;3.88;;
46765;SDS011;32527;51.986;5.842;2023-07-22T09:46:22;5.97;;;4.35;;
46765;SDS011;32527;51.986;5.842;2023-07-22T09:48:56;6.15;;;4.13;;
46765;SDS011;32527;51.986;5.842;2023-07-22T09:51:22;7.80;;;4.60;;
46765;SDS011;32527;51.986;5.842;2023-07-22T09:53:59;7.38;;;5.00;;
46765;SDS011;32527;51.986;5.842;2023-07-22T09:56:25;6.32;;;4.70;;
46765;SDS011;32527;51.986;5.842;2023-07-22T09:58:51;5.65;;;4.80;;
46765;SDS011;32527;51.986;5.842;2023-07-22T10:01:22;5.82;;;4.45;;
46765;SDS011;32527;51.986;5.842;2023-07-22T10:03:53;5.07;;;4.20;;
46765;SDS011;32527;51.986;5.842;2023-07-22T10:06:24;5.35;;;4.57;;
46765;SDS011;32527;51.986;5.842;2023-07-22T10:08:53;9.52;;;4.57;;
46765;SDS011;32527;51.986;5.842;2023-07-22T10:11:20;8.48;;;5.53;;
46765;SDS011;32527;51.986;5.842;2023-07-22T10:13:47;9.20;;;5.30;;
46765;SDS011;32527;51.986;5.842;2023-07-22T10:16:13;6.72;;;5.25;;
46765;SDS011;32527;51.986;5.842;2023-07-22T10:18:40;7.85;;;4.95;;
46765;SDS011;32527;51.986;5.842;2023-07-22T10:21:08;7.50;;;4.63;;
46765;SDS011;32527;51.986;5.842;2023-07-22T10:23:34;10.35;;;4.65;;
46765;SDS011;32527;51.986;5.842;2023-07-22T10:26:03;6.13;;;4.50;;
46765;SDS011;32527;51.986;5.842;2023-07-22T10:28:30;6.35;;;4.40;;
46765;SDS011;32527;51.986;5.842;2023-07-22T10:30:56;6.53;;;5.07;;
46765;SDS011;32527;51.986;5.842;2023-07-22T10:33:22;7.20;;;4.28;;
46765;SDS011;32527;51.986;5.842;2023-07-22T10:36:02;5.78;;;4.78;;
46765;SDS011;32527;51.986;5.842;2023-07-22T10:38:29;5.68;;;4.28;;
46765;SDS011;32527;51.986;5.842;2023-07-22T10:40:55;6.50;;;4.75;;
46765;SDS011;32527;51.986;5.842;2023-07-22T10:43:25;5.97;;;4.30;;
46765;SDS011;32527;51.986;5.842;2023-07-22T10:45:53;5.53;;;4.00;;
46765;SDS011;32527;51.986;5.842;2023-07-22T10:48:19;5.63;;;4.15;;
46765;SDS011;32527;51.986;5.842;2023-07-22T10:53:27;8.60;;;4.45;;
46765;SDS011;32527;51.986;5.842;2023-07-22T11:14:49;5.57;;;3.78;;
46765;SDS011;32527;51.986;5.842;2023-07-22T11:17:16;4.32;;;3.70;;
46765;SDS011;32527;51.986;5.842;2023-07-22T11:19:42;5.65;;;4.28;;
46765;SDS011;32527;51.986;5.842;2023-07-22T11:22:09;10.48;;;4.40;;
46765;SDS011;32527;51.986;5.842;2023-07-22T11:24:35;4.47;;;3.97;;
46765;SDS011;32527;51.986;5.842;2023-07-22T11:27:03;6.03;;;3.78;;
46765;SDS011;32527;51.986;5.842;2023-07-22T11:29:29;7.32;;;3.80;;
46765;SDS011;32527;51.986;5.842;2023-07-22T11:31:55;8.80;;;4.47;;
46765;SDS011;32527;51.986;5.842;2023-07-22T11:34:22;3.95;;;3.55;;
46765;SDS011;32527;51.986;5.842;2023-07-22T11:36:50;4.95;;;3.50;;
46765;SDS011;32527;51.986;5.842;2023-07-22T11:39:20;4.15;;;3.72;;
46765;SDS011;32527;51.986;5.842;2023-07-22T11:41:47;4.38;;;3.92;;
46765;SDS011;32527;51.986;5.842;2023-07-22T11:44:15;5.10;;;4.07;;
46765;SDS011;32527;51.986;5.842;2023-07-22T11:47:01;6.15;;;3.88;;
46765;SDS011;32527;51.986;5.842;2023-07-22T11:52:05;4.60;;;4.15;;
46765;SDS011;32527;51.986;5.842;2023-07-22T11:54:35;4.88;;;4.32;;
46765;SDS011;32527;51.986;5.842;2023-07-22T11:59:44;4.28;;;3.72;;
46765;SDS011;32527;51.986;5.842;2023-07-22T12:02:18;4.22;;;3.55;;
46765;SDS011;32527;51.986;5.842;2023-07-22T12:07:37;3.67;;;3.30;;
46765;SDS011;32527;51.986;5.842;2023-07-22T12:10:04;3.92;;;3.60;;
46765;SDS011;32527;51.986;5.842;2023-07-22T12:15:01;7.85;;;3.67;;
46765;SDS011;32527;51.986;5.842;2023-07-22T12:17:29;4.07;;;3.75;;
46765;SDS011;32527;51.986;5.842;2023-07-22T12:19:55;4.35;;;3.95;;
46765;SDS011;32527;51.986;5.842;2023-07-22T12:22:21;3.97;;;3.63;;
46765;SDS011;32527;51.986;5.842;2023-07-22T12:24:47;4.45;;;3.67;;
46765;SDS011;32527;51.986;5.842;2023-07-22T12:27:13;3.72;;;3.40;;
46765;SDS011;32527;51.986;5.842;2023-07-22T12:29:39;4.00;;;3.60;;
46765;SDS011;32527;51.986;5.842;2023-07-22T12:32:05;4.45;;;3.80;;
46765;SDS011;32527;51.986;5.842;2023-07-22T12:34:32;3.45;;;3.15;;
46765;SDS011;32527;51.986;5.842;2023-07-22T12:36:58;4.13;;;3.72;;
46765;SDS011;32527;51.986;5.842;2023-07-22T12:39:24;3.60;;;3.30;;
46765;SDS011;32527;51.986;5.842;2023-07-22T12:41:50;4.43;;;4.03;;
46765;SDS011;32527;51.986;5.842;2023-07-22T12:44:16;3.67;;;3.20;;
46765;SDS011;32527;51.986;5.842;2023-07-22T12:46:42;3.67;;;3.38;;
46765;SDS011;32527;51.986;5.842;2023-07-22T12:49:08;3.75;;;3.25;;
46765;SDS011;32527;51.986;5.842;2023-07-22T12:51:34;4.97;;;3.63;;
46765;SDS011;32527;51.986;5.842;2023-07-22T12:54:00;3.45;;;3.15;;
46765;SDS011;32527;51.986;5.842;2023-07-22T12:56:26;2.92;;;2.65;;
46765;SDS011;32527;51.986;5.842;2023-07-22T12:58:52;4.72;;;2.95;;
46765;SDS011;32527;51.986;5.842;2023-07-22T13:01:18;5.60;;;3.80;;
46765;SDS011;32527;51.986;5.842;2023-07-22T13:03:44;3.55;;;3.25;;
46765;SDS011;32527;51.986;5.842;2023-07-22T13:06:10;3.85;;;3.08;;
46765;SDS011;32527;51.986;5.842;2023-07-22T13:08:36;4.82;;;3.20;;
46765;SDS011;32527;51.986;5.842;2023-07-22T13:11:02;3.65;;;3.10;;
46765;SDS011;32527;51.986;5.842;2023-07-22T13:13:28;4.05;;;3.08;;
46765;SDS011;32527;51.986;5.842;2023-07-22T13:15:54;5.30;;;3.65;;
46765;SDS011;32527;51.986;5.842;2023-07-22T13:18:20;3.92;;;3.55;;
46765;SDS011;32527;51.986;5.842;2023-07-22T13:20:46;5.28;;;3.72;;
46765;SDS011;32527;51.986;5.842;2023-07-22T13:23:12;4.93;;;4.00;;
46765;SDS011;32527;51.986;5.842;2023-07-22T13:25:38;4.07;;;3.65;;
46765;SDS011;32527;51.986;5.842;2023-07-22T13:28:05;3.83;;;3.42;;
46765;SDS011;32527;51.986;5.842;2023-07-22T13:30:31;6.20;;;4.00;;
46765;SDS011;32527;51.986;5.842;2023-07-22T13:32:57;5.57;;;3.58;;
46765;SDS011;32527;51.986;5.842;2023-07-22T13:35:23;4.38;;;3.72;;
46765;SDS011;32527;51.986;5.842;2023-07-22T13:37:49;4.93;;;3.97;;
46765;SDS011;32527;51.986;5.842;2023-07-22T13:40:15;6.15;;;3.88;;
46765;SDS011;32527;51.986;5.842;2023-07-22T13:42:41;7.70;;;3.65;;
46765;SDS011;32527;51.986;5.842;2023-07-22T13:45:07;4.63;;;3.70;;
46765;SDS011;32527;51.986;5.842;2023-07-22T13:47:33;4.55;;;3.90;;
46765;SDS011;32527;51.986;5.842;2023-07-22T13:49:59;4.18;;;3.60;;
46765;SDS011;32527;51.986;5.842;2023-07-22T13:52:25;4.25;;;3.80;;
46765;SDS011;32527;51.986;5.842;2023-07-22T13:54:51;4.13;;;3.72;;
46765;SDS011;32527;51.986;5.842;2023-07-22T13:57:17;6.80;;;4.68;;
46765;SDS011;32527;51.986;5.842;2023-07-22T13:59:44;4.35;;;3.85;;
46765;SDS011;32527;51.986;5.842;2023-07-22T14:02:10;3.65;;;3.35;;
46765;SDS011;32527;51.986;5.842;2023-07-22T14:04:36;3.30;;;3.00;;
46765;SDS011;32527;51.986;5.842;2023-07-22T14:07:02;3.75;;;3.42;;
46765;SDS011;32527;51.986;5.842;2023-07-22T14:09:28;4.95;;;3.10;;
46765;SDS011;32527;51.986;5.842;2023-07-22T14:11:54;3.40;;;3.10;;
46765;SDS011;32527;51.986;5.842;2023-07-22T14:14:20;4.72;;;3.75;;
46765;SDS011;32527;51.986;5.842;2023-07-22T14:16:53;4.10;;;3.47;;
46765;SDS011;32527;51.986;5.842;2023-07-22T14:19:19;3.97;;;3.42;;
46765;SDS011;32527;51.986;5.842;2023-07-22T14:21:45;4.25;;;3.70;;
46765;SDS011;32527;51.986;5.842;2023-07-22T14:24:11;3.90;;;3.50;;
46765;SDS011;32527;51.986;5.842;2023-07-22T14:26:37;5.82;;;3.40;;
46765;SDS011;32527;51.986;5.842;2023-07-22T14:29:03;4.63;;;3.50;;
46765;SDS011;32527;51.986;5.842;2023-07-22T14:31:29;5.03;;;3.55;;
46765;SDS011;32527;51.986;5.842;2023-07-22T14:33:55;4.38;;;3.60;;
46765;SDS011;32527;51.986;5.842;2023-07-22T14:36:21;5.72;;;3.20;;
46765;SDS011;32527;51.986;5.842;2023-07-22T14:38:47;3.67;;;3.35;;
46765;SDS011;32527;51.986;5.842;2023-07-22T14:41:13;3.97;;;3.58;;
46765;SDS011;32527;51.986;5.842;2023-07-22T14:43:40;5.18;;;3.33;;
46765;SDS011;32527;51.986;5.842;2023-07-22T14:46:06;9.50;;;3.60;;
46765;SDS011;32527;51.986;5.842;2023-07-22T14:48:32;3.72;;;3.40;;
46765;SDS011;32527;51.986;5.842;2023-07-22T14:50:58;3.65;;;3.28;;
46765;SDS011;32527;51.986;5.842;2023-07-22T14:53:24;4.50;;;3.67;;
46765;SDS011;32527;51.986;5.842;2023-07-22T14:55:50;3.90;;;3.58;;
46765;SDS011;32527;51.986;5.842;2023-07-22T14:58:16;3.83;;;3.33;;
46765;SDS011;32527;51.986;5.842;2023-07-22T15:00:42;3.85;;;3.55;;
46765;SDS011;32527;51.986;5.842;2023-07-22T15:03:09;4.10;;;3.80;;
46765;SDS011;32527;51.986;5.842;2023-07-22T15:05:35;4.82;;;3.25;;
46765;SDS011;32527;51.986;5.842;2023-07-22T15:08:01;3.65;;;3.35;;
46765;SDS011;32527;51.986;5.842;2023-07-22T15:10:27;3.50;;;3.20;;
46765;SDS011;32527;51.986;5.842;2023-07-22T15:12:53;3.70;;;3.40;;
46765;SDS011;32527;51.986;5.842;2023-07-22T15:15:19;9.95;;;3.85;;